Time;durP1;ratioP1;P1;durP2;ratioP2;P2;SDS_P1;SDS_P2;PMS_P1;PMS_P2;Temp;Humidity;BMP_temperature;BMP_pressure;BME280_temperature;BME280_humidity;BME280_pressure;Samples;Min_cycle;Max_cycle;Signal;HPM_P1;HPM_P2
2022/07/04 00:00:59;;;;;;;13.23;9.23;;;;;;;;;;7729664;23;20380;-54
2022/07/04 00:04:00;;;;;;;13.17;9.10;;;;;;;;;;7731879;23;20048;-48
2022/07/04 00:07:01;;;;;;;12.53;8.10;;;;;;;;;;7730399;23;20024;-53
2022/07/04 00:10:02;;;;;;;11.47;8.27;;;;;;;;;;7732207;23;20099;-55
2022/07/04 00:13:03;;;;;;;11.50;8.15;;;;;;;;;;7730924;23;20020;-48
2022/07/04 00:16:04;;;;;;;11.90;8.60;;;;;;;;;;7701430;23;20071;-47
2022/07/04 00:19:04;;;;;;;11.87;8.37;;;;;;;;;;7731323;23;20024;-46
2022/07/04 00:22:05;;;;;;;11.93;8.50;;;;;;;;;;7728496;23;20066;-50
2022/07/04 00:25:07;;;;;;;11.40;8.13;;;;;;;;;;7728633;23;20127;-46
2022/07/04 00:28:08;;;;;;;13.13;8.40;;;;;;;;;;7730746;23;20789;-46
2022/07/04 00:31:08;;;;;;;11.37;7.93;;;;;;;;;;7732250;23;20102;-48
2022/07/04 00:34:09;;;;;;;11.47;8.30;;;;;;;;;;7732007;23;20159;-51
2022/07/04 00:37:10;;;;;;;10.87;8.00;;;;;;;;;;7729522;23;20024;-48
2022/07/04 00:40:11;;;;;;;11.50;7.83;;;;;;;;;;7730738;23;20083;-49
2022/07/04 00:43:12;;;;;;;10.43;7.63;;;;;;;;;;7729554;23;20027;-47
2022/07/04 00:46:12;;;;;;;10.03;7.50;;;;;;;;;;7727448;23;20103;-49
2022/07/04 00:49:16;;;;;;;10.63;7.97;;;;;;;;;;7731613;23;20020;-55
2022/07/04 00:52:17;;;;;;;9.73;7.40;;;;;;;;;;7730786;23;20020;-45
2022/07/04 00:55:18;;;;;;;13.18;8.05;;;;;;;;;;7730247;23;20099;-57
2022/07/04 00:58:21;;;;;;;10.60;7.90;;;;;;;;;;7737042;23;20051;-49
2022/07/04 01:01:22;;;;;;;11.63;7.95;;;;;;;;;;7743412;23;20451;-46
2022/07/04 01:04:23;;;;;;;11.60;8.40;;;;;;;;;;7745553;23;20016;-47
2022/07/04 01:07:24;;;;;;;9.93;7.50;;;;;;;;;;7746830;23;20709;-47
2022/07/04 01:10:24;;;;;;;11.73;7.90;;;;;;;;;;7746251;23;20028;-49
2022/07/04 01:13:25;;;;;;;11.03;8.30;;;;;;;;;;7745929;23;20016;-47
2022/07/04 01:16:26;;;;;;;12.23;8.27;;;;;;;;;;7745975;23;20051;-48
2022/07/04 01:19:27;;;;;;;12.02;8.35;;;;;;;;;;7745485;23;20475;-46
2022/07/04 01:22:27;;;;;;;12.53;8.50;;;;;;;;;;7746733;23;20020;-53
2022/07/04 01:25:28;;;;;;;11.90;8.67;;;;;;;;;;7744040;23;20332;-50
2022/07/04 01:28:29;;;;;;;11.70;7.80;;;;;;;;;;7742406;23;20016;-46
2022/07/04 01:31:29;;;;;;;13.23;8.87;;;;;;;;;;7742424;23;20339;-47
2022/07/04 01:34:30;;;;;;;11.47;8.97;;;;;;;;;;7741899;23;20027;-47
2022/07/04 01:37:31;;;;;;;14.87;9.93;;;;;;;;;;7742737;23;20024;-49
2022/07/04 01:40:31;;;;;;;13.57;8.23;;;;;;;;;;7742674;23;20447;-48
2022/07/04 01:43:32;;;;;;;11.20;8.30;;;;;;;;;;7744114;23;20332;-47
2022/07/04 01:46:32;;;;;;;11.70;8.20;;;;;;;;;;7741327;23;20048;-48
2022/07/04 01:49:33;;;;;;;12.60;8.10;;;;;;;;;;7740686;23;20024;-50
2022/07/04 01:52:34;;;;;;;10.63;7.90;;;;;;;;;;7742041;23;20023;-46
2022/07/04 01:55:35;;;;;;;10.67;7.43;;;;;;;;;;7751176;23;20070;-47
2022/07/04 01:58:35;;;;;;;11.57;8.20;;;;;;;;;;7741414;23;20396;-46
2022/07/04 02:01:37;;;;;;;12.17;8.50;;;;;;;;;;7738885;23;20023;-48
2022/07/04 02:04:38;;;;;;;10.63;8.13;;;;;;;;;;7739794;23;20054;-46
2022/07/04 02:07:38;;;;;;;11.83;8.23;;;;;;;;;;7740378;23;20347;-47
2022/07/04 02:10:39;;;;;;;10.77;8.03;;;;;;;;;;7738169;23;21028;-49
2022/07/04 02:13:39;;;;;;;11.10;7.87;;;;;;;;;;7741010;23;20012;-47
2022/07/04 02:16:40;;;;;;;14.52;8.75;;;;;;;;;;7741055;23;20486;-47
2022/07/04 02:19:41;;;;;;;13.48;8.43;;;;;;;;;;7743431;23;20023;-46
2022/07/04 02:22:41;;;;;;;11.93;7.60;;;;;;;;;;7742092;23;20023;-46
2022/07/04 02:25:42;;;;;;;11.47;8.13;;;;;;;;;;7741468;23;20024;-47
2022/07/04 02:28:42;;;;;;;11.85;7.88;;;;;;;;;;7744064;23;20299;-47
2022/07/04 02:31:44;;;;;;;12.07;8.38;;;;;;;;;;7744693;23;20176;-47
2022/07/04 02:34:44;;;;;;;11.57;8.17;;;;;;;;;;7744428;23;20085;-47
2022/07/04 02:37:45;;;;;;;11.27;7.90;;;;;;;;;;7744026;23;20016;-47
2022/07/04 02:40:45;;;;;;;13.10;8.80;;;;;;;;;;7744092;23;20048;-51
2022/07/04 02:43:46;;;;;;;11.93;8.20;;;;;;;;;;7743597;23;20119;-46
2022/07/04 02:46:47;;;;;;;13.65;7.75;;;;;;;;;;7744504;23;20054;-47
2022/07/04 02:49:48;;;;;;;10.23;7.38;;;;;;;;;;7744297;23;20499;-47
2022/07/04 02:52:48;;;;;;;10.17;6.57;;;;;;;;;;7743847;23;20016;-45
2022/07/04 02:55:49;;;;;;;13.23;7.00;;;;;;;;;;7743809;23;20106;-47
2022/07/04 02:58:50;;;;;;;12.93;7.63;;;;;;;;;;7741390;23;20047;-48
2022/07/04 03:01:50;;;;;;;12.25;7.13;;;;;;;;;;7740120;23;20047;-47
2022/07/04 03:04:51;;;;;;;13.53;8.00;;;;;;;;;;7743259;23;20031;-54
2022/07/04 03:07:52;;;;;;;13.27;8.00;;;;;;;;;;7744371;23;20020;-47
2022/07/04 03:10:53;;;;;;;12.55;8.20;;;;;;;;;;7744051;23;20024;-50
2022/07/04 03:13:53;;;;;;;12.60;8.40;;;;;;;;;;7715436;23;20016;-48
2022/07/04 03:16:54;;;;;;;13.37;7.70;;;;;;;;;;7742684;23;20027;-47
2022/07/04 03:19:55;;;;;;;12.03;8.27;;;;;;;;;;7743452;23;20016;-48
2022/07/04 03:22:55;;;;;;;10.43;7.47;;;;;;;;;;7744796;23;20456;-54
2022/07/04 03:25:56;;;;;;;11.57;7.47;;;;;;;;;;7742903;23;20031;-46
2022/07/04 03:28:58;;;;;;;10.77;7.33;;;;;;;;;;7741348;23;20020;-46
2022/07/04 03:31:58;;;;;;;;;;;;;;;;;;7742912;23;20350;-50
2022/07/04 03:34:59;;;;;;;10.25;7.30;;;;;;;;;;7740877;23;19954;-49
2022/07/04 03:37:59;;;;;;;11.27;7.20;;;;;;;;;;7744043;23;20390;-46
2022/07/04 03:41:00;;;;;;;12.70;8.67;;;;;;;;;;7744959;23;20023;-49
2022/07/04 03:44:00;;;;;;;11.02;8.23;;;;;;;;;;7743485;23;20044;-47
2022/07/04 03:47:01;;;;;;;11.60;7.85;;;;;;;;;;7743013;23;20055;-53
2022/07/04 03:50:03;;;;;;;13.35;8.20;;;;;;;;;;7745019;23;20016;-47
2022/07/04 03:53:03;;;;;;;12.18;8.43;;;;;;;;;;7745635;23;20444;-47
2022/07/04 03:56:04;;;;;;;13.00;8.60;;;;;;;;;;7743032;23;20020;-48
2022/07/04 03:59:05;;;;;;;14.93;8.67;;;;;;;;;;7743024;23;20012;-49
2022/07/04 04:02:05;;;;;;;11.57;8.43;;;;;;;;;;7742175;23;20020;-51
2022/07/04 04:08:26;;;;;;;11.57;8.68;;;;;;;;;;7747422;23;20020;-52
2022/07/04 04:11:26;;;;;;;13.10;8.90;;;;;;;;;;7751561;23;20094;-46
2022/07/04 04:14:27;;;;;;;17.15;8.90;;;;;;;;;;7744707;23;20103;-49
2022/07/04 04:17:28;;;;;;;16.53;10.10;;;;;;;;;;7743858;23;20020;-46
2022/07/04 04:20:28;;;;;;;15.30;10.67;;;;;;;;;;7743881;23;20020;-50
2022/07/04 04:23:29;;;;;;;16.20;10.63;;;;;;;;;;7746142;23;20020;-48
2022/07/04 04:26:30;;;;;;;15.80;11.00;;;;;;;;;;7742163;23;20095;-52
2022/07/04 04:29:31;;;;;;;19.93;12.33;;;;;;;;;;7739927;23;20031;-47
2022/07/04 04:32:32;;;;;;;16.67;12.05;;;;;;;;;;7744714;23;20020;-46
2022/07/04 04:35:32;;;;;;;15.67;10.70;;;;;;;;;;7745470;23;20043;-47
2022/07/04 04:38:33;;;;;;;17.10;11.47;;;;;;;;;;7745186;23;20039;-47
2022/07/04 04:41:33;;;;;;;19.40;11.83;;;;;;;;;;7743336;23;20047;-47
2022/07/04 04:44:34;;;;;;;16.13;12.10;;;;;;;;;;7715844;23;20020;-47
2022/07/04 04:47:35;;;;;;;16.83;11.00;;;;;;;;;;7744884;23;20498;-49
2022/07/04 04:50:35;;;;;;;16.97;12.10;;;;;;;;;;7743302;23;20024;-46
2022/07/04 04:53:36;;;;;;;19.43;11.93;;;;;;;;;;7742489;23;20083;-47
2022/07/04 04:56:37;;;;;;;17.37;11.73;;;;;;;;;;7739201;23;20023;-51
2022/07/04 04:59:37;;;;;;;17.90;12.33;;;;;;;;;;7740521;23;20020;-49
2022/07/04 05:02:38;;;;;;;19.23;12.77;;;;;;;;;;7742471;23;20336;-61
2022/07/04 05:05:39;;;;;;;18.67;12.50;;;;;;;;;;7742692;23;20070;-48
2022/07/04 05:08:39;;;;;;;21.97;15.60;;;;;;;;;;7744053;23;20020;-48
2022/07/04 05:11:40;;;;;;;28.33;20.30;;;;;;;;;;7744779;23;20040;-46
2022/07/04 05:14:41;;;;;;;27.03;20.07;;;;;;;;;;7745242;23;20775;-47
2022/07/04 05:17:41;;;;;;;20.50;15.90;;;;;;;;;;7741277;23;20020;-48
2022/07/04 05:20:42;;;;;;;20.70;15.13;;;;;;;;;;7744414;23;20777;-50
2022/07/04 05:23:43;;;;;;;75.27;51.40;;;;;;;;;;7743235;23;20020;-47
2022/07/04 05:26:43;;;;;;;27.37;17.83;;;;;;;;;;7745296;23;20016;-47
2022/07/04 05:29:45;;;;;;;26.85;16.25;;;;;;;;;;7757754;23;20020;-48
2022/07/04 05:32:46;;;;;;;23.77;14.60;;;;;;;;;;7744513;23;20027;-50
2022/07/04 05:35:46;;;;;;;20.33;14.03;;;;;;;;;;7737628;23;20436;-50
2022/07/04 05:38:47;;;;;;;32.57;22.43;;;;;;;;;;7737591;23;20050;-48
2022/07/04 05:41:50;;;;;;;28.98;20.05;;;;;;;;;;7741045;23;20024;-48
2022/07/04 05:44:51;;;;;;;21.70;14.83;;;;;;;;;;7742132;23;20035;-48
2022/07/04 05:47:51;;;;;;;21.87;14.40;;;;;;;;;;7745451;23;20020;-47
2022/07/04 05:50:52;;;;;;;21.57;14.50;;;;;;;;;;7745877;23;20493;-51
2022/07/04 05:53:53;;;;;;;22.17;14.13;;;;;;;;;;7741485;23;20016;-54
2022/07/04 05:56:53;;;;;;;21.30;14.43;;;;;;;;;;7740554;23;20020;-47
2022/07/04 05:59:54;;;;;;;24.73;14.80;;;;;;;;;;7740544;23;20446;-50
2022/07/04 06:02:55;;;;;;;35.42;26.10;;;;;;;;;;7740897;23;20023;-50
2022/07/04 06:05:57;;;;;;;23.27;16.20;;;;;;;;;;7742159;23;20399;-46
2022/07/04 06:08:58;;;;;;;23.02;14.82;;;;;;;;;;7741813;23;20372;-48
2022/07/04 06:11:58;;;;;;;20.07;14.20;;;;;;;;;;7742146;23;20016;-49
2022/07/04 06:14:59;;;;;;;21.87;14.67;;;;;;;;;;7737798;23;20050;-46
2022/07/04 06:18:02;;;;;;;23.87;14.70;;;;;;;;;;7742026;23;20016;-47
2022/07/04 06:21:02;;;;;;;20.90;14.68;;;;;;;;;;7738996;23;20340;-47
2022/07/04 06:24:03;;;;;;;25.87;17.63;;;;;;;;;;7741353;23;20023;-47
2022/07/04 06:27:05;;;;;;;26.15;17.60;;;;;;;;;;7741880;23;20027;-47
2022/07/04 06:30:06;;;;;;;21.98;16.17;;;;;;;;;;7740371;23;20071;-47
2022/07/04 06:33:07;;;;;;;21.40;14.57;;;;;;;;;;7739389;23;20024;-47
2022/07/04 06:36:07;;;;;;;20.20;14.63;;;;;;;;;;7740960;23;20027;-47
2022/07/04 06:39:08;;;;;;;23.17;15.13;;;;;;;;;;7741767;23;20096;-48
2022/07/04 06:42:08;;;;;;;22.60;13.33;;;;;;;;;;7741994;23;20027;-48
2022/07/04 06:45:09;;;;;;;19.40;13.53;;;;;;;;;;7740681;23;20424;-47
2022/07/04 06:48:10;;;;;;;18.80;14.27;;;;;;;;;;7740164;23;20040;-47
2022/07/04 06:51:11;;;;;;;21.57;15.37;;;;;;;;;;7741892;23;20348;-47
2022/07/04 06:54:11;;;;;;;19.83;14.57;;;;;;;;;;7741132;23;20452;-47
2022/07/04 06:57:13;;;;;;;22.07;15.27;;;;;;;;;;7737025;23;20043;-47
2022/07/04 07:00:14;;;;;;;20.02;15.23;;;;;;;;;;7742026;23;20020;-51
2022/07/04 07:03:15;;;;;;;36.88;27.20;;;;;;;;;;7741574;23;20352;-51
2022/07/04 07:06:16;;;;;;;25.73;17.43;;;;;;;;;;7745898;23;20020;-48
2022/07/04 07:09:17;;;;;;;18.25;13.55;;;;;;;;;;7743194;23;20020;-47
2022/07/04 07:12:17;;;;;;;16.57;12.87;;;;;;;;;;7745011;23;20559;-55
2022/07/04 07:15:19;;;;;;;18.20;12.60;;;;;;;;;;7743776;23;20074;-47
2022/07/04 07:18:20;;;;;;;18.67;13.40;;;;;;;;;;7742013;23;20095;-47
2022/07/04 07:21:20;;;;;;;44.95;31.50;;;;;;;;;;7741242;23;20482;-47
2022/07/04 07:24:23;;;;;;;35.37;27.37;;;;;;;;;;7731928;23;20040;-48
2022/07/04 07:27:24;;;;;;;17.58;13.35;;;;;;;;;;7733080;23;20030;-47
2022/07/04 07:30:25;;;;;;;17.67;12.80;;;;;;;;;;7732749;23;20028;-49
2022/07/04 07:33:26;;;;;;;16.77;12.45;;;;;;;;;;7733048;23;20245;-49
2022/07/04 07:36:26;;;;;;;16.50;12.33;;;;;;;;;;7729830;23;20058;-51
2022/07/04 07:39:27;;;;;;;15.93;11.70;;;;;;;;;;7730711;23;20107;-47
2022/07/04 07:42:28;;;;;;;14.97;11.47;;;;;;;;;;7730392;23;20412;-47
2022/07/04 07:45:28;;;;;;;16.67;12.15;;;;;;;;;;7735236;23;20075;-48
2022/07/04 07:48:29;;;;;;;15.03;12.67;;;;;;;;;;7732520;23;20154;-47
2022/07/04 07:51:30;;;;;;;18.03;12.50;;;;;;;;;;7732490;23;20372;-48
2022/07/04 07:54:32;;;;;;;16.07;12.53;;;;;;;;;;7729103;23;20117;-48
2022/07/04 07:57:32;;;;;;;14.82;11.85;;;;;;;;;;7730972;23;20023;-49
2022/07/04 08:00:33;;;;;;;17.50;12.50;;;;;;;;;;7731634;23;20447;-48
2022/07/04 08:06:52;;;;;;;14.23;10.63;;;;;;;;;;7730577;23;20024;-47
2022/07/04 08:09:53;;;;;;;15.13;11.20;;;;;;;;;;7732304;23;20030;-47
2022/07/04 08:12:55;;;;;;;17.67;13.27;;;;;;;;;;7733251;23;20020;-52
2022/07/04 08:15:56;;;;;;;16.33;12.25;;;;;;;;;;7730747;23;20059;-51
2022/07/04 08:18:57;;;;;;;16.43;11.83;;;;;;;;;;7730030;23;20024;-47
2022/07/04 08:21:57;;;;;;;16.97;10.33;;;;;;;;;;7734421;23;20078;-49
2022/07/04 08:24:58;;;;;;;15.47;10.40;;;;;;;;;;7729433;23;20697;-47
2022/07/04 08:28:01;;;;;;;15.45;11.25;;;;;;;;;;7732630;23;20016;-49
2022/07/04 08:31:03;;;;;;;14.40;11.17;;;;;;;;;;7738611;23;20510;-47
2022/07/04 08:34:04;;;;;;;15.07;11.10;;;;;;;;;;7728678;23;20131;-50
2022/07/04 08:37:05;;;;;;;14.73;10.23;;;;;;;;;;7731340;23;20139;-47
2022/07/04 08:40:07;;;;;;;27.17;20.50;;;;;;;;;;7728463;23;20105;-47
2022/07/04 08:43:13;;;;;;;16.27;11.25;;;;;;;;;;7727546;23;20043;-47
2022/07/04 08:46:17;;;;;;;15.15;11.80;;;;;;;;;;7729099;23;20032;-48
2022/07/04 08:49:21;;;;;;;13.60;10.05;;;;;;;;;;7730786;23;20023;-47
2022/07/04 08:52:34;;;;;;;11.73;8.95;;;;;;;;;;7730558;23;20368;-47
2022/07/04 08:58:57;;;;;;;12.32;9.82;;;;;;;;;;7729972;23;20772;-47
2022/07/04 09:01:57;;;;;;;16.27;10.63;;;;;;;;;;7731135;23;20020;-52
2022/07/04 09:05:01;;;;;;;16.40;10.63;;;;;;;;;;7730154;23;20373;-47
2022/07/04 09:08:03;;;;;;;13.90;10.90;;;;;;;;;;7731941;23;20022;-46
2022/07/04 09:11:04;;;;;;;13.30;10.13;;;;;;;;;;7733776;23;20047;-46
2022/07/04 09:14:05;;;;;;;11.85;9.65;;;;;;;;;;7733606;23;20116;-50
2022/07/04 09:17:05;;;;;;;17.20;15.18;;;;;;;;;;7731585;23;20012;-46
2022/07/04 09:20:21;;;;;;;12.17;8.80;;;;;;;;;;7730867;23;20016;-49
2022/07/04 09:23:25;;;;;;;11.45;9.40;;;;;;;;;;7733757;23;20031;-49
2022/07/04 09:26:25;;;;;;;11.75;9.48;;;;;;;;;;7731359;23;20028;-47
2022/07/04 09:29:26;;;;;;;12.73;10.60;;;;;;;;;;7730870;23;20462;-48
2022/07/04 09:32:38;;;;;;;11.10;9.23;;;;;;;;;;7737079;23;20073;-47
2022/07/04 09:35:39;;;;;;;11.82;8.82;;;;;;;;;;7740217;23;20020;-46
2022/07/04 09:38:40;;;;;;;12.13;9.27;;;;;;;;;;7741843;23;20517;-48
2022/07/04 09:41:51;;;;;;;13.57;9.63;;;;;;;;;;7742688;23;20016;-47
2022/07/04 09:44:52;;;;;;;14.50;10.27;;;;;;;;;;7737449;23;20020;-49
2022/07/04 09:47:56;;;;;;;13.13;10.18;;;;;;;;;;7738323;23;20964;-47
2022/07/04 09:50:57;;;;;;;12.35;10.02;;;;;;;;;;7742021;23;20031;-47
2022/07/04 09:53:57;;;;;;;12.97;9.93;;;;;;;;;;7742267;23;20027;-57
2022/07/04 09:57:01;;;;;;;10.27;8.37;;;;;;;;;;7743439;23;20016;-48
2022/07/04 10:00:17;;;;;;;12.38;8.95;;;;;;;;;;7740458;23;20345;-48
2022/07/04 10:03:25;;;;;;;10.25;8.00;;;;;;;;;;7740563;23;20511;-48
2022/07/04 10:06:34;;;;;;;14.38;7.03;;;;;;;;;;7741305;23;20024;-49
2022/07/04 10:09:34;;;;;;;8.02;7.05;;;;;;;;;;7740652;23;20024;-49
2022/07/04 10:12:35;;;;;;;10.93;7.45;;;;;;;;;;7740947;23;20510;-48
2022/07/04 10:15:38;;;;;;;10.52;6.95;;;;;;;;;;7741020;23;20027;-48
2022/07/04 10:18:40;;;;;;;9.18;7.05;;;;;;;;;;7741463;23;20016;-48
2022/07/04 10:21:41;;;;;;;10.98;7.20;;;;;;;;;;7740972;23;20024;-47
2022/07/04 10:24:41;;;;;;;8.82;6.00;;;;;;;;;;7742760;23;20079;-48
2022/07/04 10:27:42;;;;;;;9.67;6.17;;;;;;;;;;7741367;23;20027;-47
2022/07/04 10:30:48;;;;;;;8.35;6.35;;;;;;;;;;7738317;23;20030;-47
2022/07/04 10:33:49;;;;;;;9.05;6.00;;;;;;;;;;7712877;23;20027;-47
2022/07/04 10:36:51;;;;;;;8.02;5.78;;;;;;;;;;7740445;23;20020;-48
2022/07/04 10:39:52;;;;;;;9.07;6.40;;;;;;;;;;7743121;23;20027;-47
2022/07/04 10:42:52;;;;;;;10.13;6.78;;;;;;;;;;7757103;23;20321;-47
2022/07/04 10:45:53;;;;;;;9.30;5.97;;;;;;;;;;7743647;23;20063;-48
2022/07/04 10:48:59;;;;;;;9.88;6.13;;;;;;;;;;7744475;23;20013;-47
2022/07/04 10:52:13;;;;;;;8.27;6.20;;;;;;;;;;7744022;23;20102;-48
2022/07/04 10:55:14;;;;;;;8.65;6.40;;;;;;;;;;7743338;23;20024;-47
2022/07/04 10:58:42;;;;;;;7.85;5.45;;;;;;;;;;7743021;23;20020;-48
2022/07/04 11:02:06;;;;;;;7.55;5.82;;;;;;;;;;7744609;23;20017;-47
2022/07/04 11:05:07;;;;;;;7.72;5.63;;;;;;;;;;7744389;23;20024;-47
2022/07/04 11:08:08;;;;;;;8.38;5.78;;;;;;;;;;7744387;23;20063;-47
2022/07/04 11:11:47;;;;;;;6.37;4.90;;;;;;;;;;7747213;23;20323;-48
2022/07/04 11:14:48;;;;;;;5.97;4.47;;;;;;;;;;7746268;23;20016;-47
2022/07/04 11:17:51;;;;;;;6.60;4.53;;;;;;;;;;7742912;23;20012;-47
2022/07/04 11:20:52;;;;;;;6.30;4.88;;;;;;;;;;7743466;23;20020;-48
2022/07/04 11:23:54;;;;;;;5.87;4.53;;;;;;;;;;7743404;23;20148;-47
2022/07/04 11:26:55;;;;;;;4.75;3.55;;;;;;;;;;7744822;23;20028;-47
2022/07/04 11:29:55;;;;;;;7.40;3.40;;;;;;;;;;7743489;23;20016;-47
2022/07/04 11:32:56;;;;;;;4.03;3.10;;;;;;;;;;7744302;23;20103;-47
2022/07/04 11:36:04;;;;;;;4.60;3.10;;;;;;;;;;7744218;23;20020;-47
2022/07/04 11:39:07;;;;;;;5.53;3.38;;;;;;;;;;7741999;23;20036;-51
2022/07/04 11:45:27;;;;;;;6.82;3.95;;;;;;;;;;7745272;23;20099;-49
2022/07/04 11:48:28;;;;;;;6.70;4.47;;;;;;;;;;7742293;23;20023;-48
2022/07/04 11:51:28;;;;;;;6.53;4.60;;;;;;;;;;7740391;23;20030;-52
2022/07/04 11:54:29;;;;;;;6.10;4.00;;;;;;;;;;7742484;23;20095;-50
2022/07/04 11:57:44;;;;;;;6.85;4.60;;;;;;;;;;7715051;23;20355;-48
2022/07/04 12:00:45;;;;;;;8.27;4.30;;;;;;;;;;7742242;23;20028;-49
2022/07/04 12:03:45;;;;;;;6.28;4.07;;;;;;;;;;7743578;23;20089;-49
2022/07/04 12:06:48;;;;;;;7.70;3.80;;;;;;;;;;7743082;23;20426;-53
2022/07/04 12:09:49;;;;;;;6.70;4.57;;;;;;;;;;7742182;23;20047;-48
2022/07/04 12:12:55;;;;;;;6.60;4.65;;;;;;;;;;7745589;23;20095;-50
2022/07/04 12:15:56;;;;;;;6.07;4.18;;;;;;;;;;7741966;23;20095;-47
2022/07/04 12:19:07;;;;;;;6.00;4.53;;;;;;;;;;7743543;23;20020;-49
2022/07/04 12:22:08;;;;;;;6.10;4.50;;;;;;;;;;7742357;23;20095;-47
2022/07/04 12:25:34;;;;;;;7.33;4.80;;;;;;;;;;7741742;23;20022;-46
2022/07/04 12:28:36;;;;;;;12.75;5.25;;;;;;;;;;7739640;23;20035;-49
2022/07/04 12:31:42;;;;;;;5.00;4.05;;;;;;;;;;7741577;23;20361;-48
2022/07/04 12:34:44;;;;;;;7.10;4.50;;;;;;;;;;7743781;23;20020;-48
2022/07/04 12:38:01;;;;;;;5.88;4.43;;;;;;;;;;7739829;23;20020;-48
2022/07/04 12:41:12;;;;;;;6.28;4.70;;;;;;;;;;7742693;23;20465;-48
2022/07/04 12:44:21;;;;;;;6.28;4.70;;;;;;;;;;7753276;23;20427;-48
2022/07/04 12:47:22;;;;;;;7.85;4.80;;;;;;;;;;7741441;23;20031;-49
2022/07/04 12:50:27;;;;;;;4.32;3.40;;;;;;;;;;7742305;23;20351;-49
2022/07/04 12:53:36;;;;;;;5.10;3.67;;;;;;;;;;7716118;23;20028;-48
2022/07/04 12:56:39;;;;;;;6.82;4.00;;;;;;;;;;7743259;23;20123;-50
2022/07/04 12:59:42;;;;;;;5.50;3.55;;;;;;;;;;7740710;23;20044;-48
2022/07/04 13:02:43;;;;;;;5.75;3.90;;;;;;;;;;7754762;23;20020;-49
2022/07/04 13:05:44;;;;;;;4.40;3.83;;;;;;;;;;7743054;23;20344;-49
2022/07/04 13:08:45;;;;;;;5.30;4.38;;;;;;;;;;7742938;23;20317;-47
2022/07/04 13:15:05;;;;;;;7.63;3.97;;;;;;;;;;7741992;23;20020;-48
2022/07/04 13:18:06;;;;;;;5.22;3.90;;;;;;;;;;7743264;23;20099;-49
2022/07/04 13:21:06;;;;;;;4.87;4.00;;;;;;;;;;7740627;23;20046;-47
2022/07/04 13:24:07;;;;;;;5.25;4.40;;;;;;;;;;7738069;23;20245;-47
2022/07/04 13:27:08;;;;;;;5.97;4.43;;;;;;;;;;7731801;23;20016;-47
2022/07/04 13:30:09;;;;;;;5.55;4.07;;;;;;;;;;7731614;23;20359;-48
2022/07/04 13:33:09;;;;;;;4.80;4.05;;;;;;;;;;7731101;23;20027;-50
2022/07/04 13:36:10;;;;;;;5.38;4.68;;;;;;;;;;7729276;23;20062;-47
2022/07/04 13:39:11;;;;;;;5.90;4.38;;;;;;;;;;7728641;23;20028;-48
2022/07/04 13:42:12;;;;;;;6.28;4.72;;;;;;;;;;7731263;23;20608;-47
2022/07/04 13:45:14;;;;;;;7.90;5.00;;;;;;;;;;7729608;23;20020;-58
2022/07/04 13:48:15;;;;;;;6.70;4.53;;;;;;;;;;7728799;23;20101;-48
2022/07/04 13:51:16;;;;;;;5.38;4.38;;;;;;;;;;7734149;23;20027;-57
2022/07/04 13:54:19;;;;;;;6.15;4.68;;;;;;;;;;7735576;23;20024;-49
2022/07/04 13:57:19;;;;;;;6.35;4.85;;;;;;;;;;7735518;23;20343;-54
2022/07/04 14:00:20;;;;;;;5.88;4.70;;;;;;;;;;7735688;23;20016;-50
2022/07/04 14:03:20;;;;;;;5.85;4.97;;;;;;;;;;7736576;23;20103;-50
2022/07/04 14:06:21;;;;;;;6.50;4.47;;;;;;;;;;7733581;23;20016;-51
2022/07/04 14:09:21;;;;;;;5.75;4.15;;;;;;;;;;7735214;23;20024;-49
2022/07/04 14:12:22;;;;;;;7.20;4.55;;;;;;;;;;7737107;23;20020;-49
2022/07/04 14:15:22;;;;;;;;;;;;;;;;;;7735853;23;20020;-49
2022/07/04 14:18:23;;;;;;;5.57;4.90;;;;;;;;;;7730823;23;19919;-48
2022/07/04 14:21:23;;;;;;;;;;;;;;;;;;7732405;23;20452;-53
2022/07/04 14:24:25;;;;;;;6.10;4.50;;;;;;;;;;7728279;23;20407;-47
2022/07/04 14:27:26;;;;;;;5.57;4.25;;;;;;;;;;7730288;23;20251;-50
2022/07/04 14:30:27;;;;;;;5.05;4.10;;;;;;;;;;7732141;23;20030;-48
2022/07/04 14:33:27;;;;;;;;;;;;;;;;;;7729399;23;20026;-58
2022/07/04 14:36:27;;;;;;;5.20;3.93;;;;;;;;;;7726346;23;19920;-49
2022/07/04 14:39:28;;;;;;;;;;;;;;;;;;7736439;23;20024;-50
2022/07/04 14:42:31;;;;;;;4.55;3.92;;;;;;;;;;7736227;23;19923;-50
2022/07/04 14:45:31;;;;;;;;;;;;;;;;;;7736706;23;20708;-48
2022/07/04 14:48:32;;;;;;;4.50;3.67;;;;;;;;;;7734629;23;20347;-52
2022/07/04 14:51:33;;;;;;;;;;;;;;;;;;7735993;23;20016;-50
2022/07/04 14:54:33;;;;;;;5.57;3.20;;;;;;;;;;7737953;23;20398;-55
2022/07/04 14:57:34;;;;;;;;;;;;;;;;;;7736454;23;20087;-50
2022/07/04 15:00:34;;;;;;;3.90;2.50;;;;;;;;;;7735900;23;19915;-50
2022/07/04 15:03:35;;;;;;;;;;;;;;;;;;7736708;23;20019;-52
2022/07/04 15:06:35;;;;;;;3.33;2.30;;;;;;;;;;7732801;23;20708;-53
2022/07/04 15:09:36;;;;;;;;;;;;;;;;;;7736840;23;20106;-51
2022/07/04 15:12:36;;;;;;;3.40;2.40;;;;;;;;;;7737204;23;19920;-51
2022/07/04 15:15:37;;;;;;;;;;;;;;;;;;7737355;23;20058;-54
2022/07/04 15:18:38;;;;;;;4.03;2.30;;;;;;;;;;7735528;23;19919;-56
2022/07/04 15:24:58;;;;;;;4.05;2.30;;;;;;;;;;7738330;23;20012;-57
2022/07/04 15:27:58;;;;;;;;;;;;;;;;;;7738340;23;20470;-49
2022/07/04 15:31:00;;;;;;;5.53;3.00;;;;;;;;;;7739355;23;20324;-53
2022/07/04 15:34:00;;;;;;;4.22;2.22;;;;;;;;;;7739350;23;20042;-56
2022/07/04 15:37:01;;;;;;;;;;;;;;;;;;7735604;23;20020;-56
2022/07/04 15:40:02;;;;;;;3.87;2.30;;;;;;;;;;7738850;23;19922;-53
2022/07/04 15:43:02;;;;;;;;;;;;;;;;;;7740232;23;20028;-47
2022/07/04 15:46:03;;;;;;;3.88;2.45;;;;;;;;;;7736711;23;19989;-49
2022/07/04 15:49:04;;;;;;;;;;;;;;;;;;7737205;23;20107;-47
2022/07/04 15:52:05;;;;;;;4.17;2.40;;;;;;;;;;7737386;23;20014;-49
2022/07/04 15:55:06;;;;;;;5.88;2.60;;;;;;;;;;7712765;23;20095;-53
2022/07/04 15:58:06;;;;;;;;;;;;;;;;;;7736078;23;20047;-48
2022/07/04 16:01:07;;;;;;;3.83;2.53;;;;;;;;;;7738129;23;19923;-50
2022/07/04 16:04:07;;;;;;;;;;;;;;;;;;7739814;23;20021;-55
2022/07/04 16:07:09;;;;;;;6.07;2.57;;;;;;;;;;7735026;23;20335;-49
2022/07/04 16:10:09;;;;;;;4.35;2.70;;;;;;;;;;7738525;23;20028;-49
2022/07/04 16:13:10;;;;;;;9.95;5.43;;;;;;;;;;7738332;23;20063;-49
2022/07/04 16:16:11;;;;;;;;;;;;;;;;;;7737151;23;20020;-48
2022/07/04 16:19:12;;;;;;;12.67;3.83;;;;;;;;;;7737382;23;19927;-49
2022/07/04 16:22:12;;;;;;;10.75;3.45;;;;;;;;;;7735772;23;20103;-49
2022/07/04 16:25:13;;;;;;;6.88;3.10;;;;;;;;;;7736945;23;20023;-48
2022/07/04 16:28:15;;;;;;;8.73;4.28;;;;;;;;;;7733830;23;20012;-53
2022/07/04 16:31:17;;;;;;;6.10;3.15;;;;;;;;;;7737127;23;21152;-53
2022/07/04 16:34:18;;;;;;;6.30;3.53;;;;;;;;;;7737432;23;20426;-48
2022/07/04 16:37:18;;;;;;;4.82;3.00;;;;;;;;;;7734103;23;20034;-53
2022/07/04 16:40:21;;;;;;;10.77;5.67;;;;;;;;;;7711062;23;20465;-53
2022/07/04 16:43:22;;;;;;;7.63;4.22;;;;;;;;;;7738206;23;20245;-55
2022/07/04 16:46:22;;;;;;;6.23;3.30;;;;;;;;;;7734171;23;20030;-47
2022/07/04 16:49:23;;;;;;;4.22;3.50;;;;;;;;;;7737362;23;20050;-60
2022/07/04 16:52:23;;;;;;;7.80;3.70;;;;;;;;;;7736671;23;20027;-51
2022/07/04 16:55:24;;;;;;;6.38;3.15;;;;;;;;;;7737900;23;20020;-47
2022/07/04 16:58:24;;;;;;;4.40;3.10;;;;;;;;;;7733293;23;20435;-52
2022/07/04 17:01:25;;;;;;;5.68;3.53;;;;;;;;;;7737755;23;20615;-54
2022/07/04 17:04:26;;;;;;;4.63;3.30;;;;;;;;;;7737838;23;20019;-51
2022/07/04 17:07:28;;;;;;;26.23;23.50;;;;;;;;;;7733991;23;20031;-54
2022/07/04 17:10:29;;;;;;;6.40;4.20;;;;;;;;;;7737710;23;20544;-52
2022/07/04 17:13:29;;;;;;;21.38;19.08;;;;;;;;;;7732272;23;20020;-51
2022/07/04 17:16:30;;;;;;;10.52;8.68;;;;;;;;;;7733739;23;20099;-51
2022/07/04 17:19:31;;;;;;;7.50;4.22;;;;;;;;;;7736050;23;20016;-52
2022/07/04 17:22:31;;;;;;;4.73;3.67;;;;;;;;;;7736288;23;20022;-52
2022/07/04 17:25:32;;;;;;;20.67;17.63;;;;;;;;;;7735769;23;20695;-57
2022/07/04 17:28:33;;;;;;;8.48;6.20;;;;;;;;;;7731019;23;20017;-60
2022/07/04 17:31:34;;;;;;;16.48;9.10;;;;;;;;;;7735271;23;20436;-60
2022/07/04 17:34:35;;;;;;;26.55;17.35;;;;;;;;;;7736673;23;20030;-49
2022/07/04 17:37:36;;;;;;;19.48;14.63;;;;;;;;;;7732583;23;20016;-55
2022/07/04 17:40:36;;;;;;;10.55;5.32;;;;;;;;;;7736038;23;20016;-53
2022/07/04 17:43:38;;;;;;;9.57;4.65;;;;;;;;;;7735488;23;20020;-47
2022/07/04 17:46:40;;;;;;;11.57;6.30;;;;;;;;;;7733022;23;20449;-56
2022/07/04 17:49:41;;;;;;;7.70;4.10;;;;;;;;;;7709745;23;20028;-57
2022/07/04 17:52:42;;;;;;;;;;;;;;;;;;7736579;23;20101;-54
2022/07/04 17:55:43;;;;;;;7.28;4.25;;;;;;;;;;7736262;23;19994;-55
2022/07/04 17:58:44;;;;;;;6.15;3.95;;;;;;;;;;7731631;23;20023;-51
2022/07/04 18:01:45;;;;;;;5.38;3.95;;;;;;;;;;7736398;23;20020;-54
2022/07/04 18:04:45;;;;;;;6.07;3.78;;;;;;;;;;7735203;23;20031;-53
2022/07/04 18:07:46;;;;;;;8.00;4.57;;;;;;;;;;7731469;23;20451;-48
2022/07/04 18:10:46;;;;;;;7.67;4.53;;;;;;;;;;7733437;23;20836;-59
2022/07/04 18:13:47;;;;;;;6.70;4.47;;;;;;;;;;7735183;23;20488;-54
2022/07/04 18:16:48;;;;;;;5.85;4.88;;;;;;;;;;7733244;23;20020;-48
2022/07/04 18:19:49;;;;;;;8.68;5.28;;;;;;;;;;7735696;23;20782;-50